createdAt,value
2023-03-30T00:00:59.454Z,1.77
2023-03-30T00:03:27.482Z,1.70
2023-03-30T00:05:57.980Z,2.00
2023-03-30T00:08:29.366Z,2.00
2023-03-30T00:11:13.307Z,1.80
2023-03-30T00:13:40.298Z,2.27
2023-03-30T00:16:09.396Z,2.60
2023-03-30T00:18:36.696Z,1.80
2023-03-30T00:21:04.705Z,2.13
2023-03-30T00:23:32.309Z,1.77
2023-03-30T00:25:59.281Z,1.90
2023-03-30T00:28:26.291Z,2.07
2023-03-30T00:30:53.696Z,1.83
2023-03-30T00:33:30.338Z,2.00
2023-03-30T00:36:00.506Z,2.37
2023-03-30T00:38:27.234Z,1.90
2023-03-30T00:40:59.552Z,2.30
2023-03-30T00:43:26.683Z,1.67
2023-03-30T00:45:53.309Z,2.23
2023-03-30T00:48:46.247Z,1.97
2023-03-30T00:51:13.928Z,2.30
2023-03-30T00:53:47.665Z,2.23
2023-03-30T00:56:17.431Z,2.10
2023-03-30T00:58:45.227Z,1.83
2023-03-30T01:01:18.383Z,2.37
2023-03-30T01:03:50.624Z,1.97
2023-03-30T01:06:21.738Z,2.40
2023-03-30T01:08:49.177Z,2.23
2023-03-30T01:11:15.622Z,2.10
2023-03-30T01:13:46.768Z,2.20
2023-03-30T01:16:25.300Z,2.77
2023-03-30T01:19:36.526Z,2.13
2023-03-30T01:22:30.952Z,1.93
2023-03-30T01:25:18.240Z,2.03
2023-03-30T01:28:08.750Z,1.90
2023-03-30T01:31:03.273Z,2.40
2023-03-30T01:34:03.670Z,2.23
2023-03-30T01:36:45.609Z,2.30
2023-03-30T01:39:28.855Z,2.20
2023-03-30T01:42:19.055Z,2.10
2023-03-30T01:45:00.105Z,2.10
2023-03-30T01:47:36.610Z,2.10
2023-03-30T01:50:02.929Z,2.13
2023-03-30T01:52:43.825Z,2.00
2023-03-30T01:55:17.200Z,1.77
2023-03-30T01:57:59.502Z,1.97
2023-03-30T02:00:27.775Z,2.10
2023-03-30T02:03:02.538Z,2.70
2023-03-30T02:05:30.716Z,2.67
2023-03-30T02:08:14.245Z,2.23
2023-03-30T02:10:43.634Z,2.17
2023-03-30T02:13:11.462Z,1.83
2023-03-30T02:15:41.739Z,2.20
2023-03-30T02:18:08.589Z,2.10
2023-03-30T02:20:35.755Z,2.17
2023-03-30T02:23:03.600Z,1.83
2023-03-30T02:25:29.956Z,2.10
2023-03-30T02:27:56.371Z,2.13
2023-03-30T02:30:22.839Z,2.23
2023-03-30T02:32:53.337Z,2.03
2023-03-30T02:35:22.106Z,1.80
2023-03-30T02:38:09.916Z,2.10
2023-03-30T02:40:58.181Z,1.87
2023-03-30T02:44:01.885Z,2.47
2023-03-30T02:46:40.314Z,2.30
2023-03-30T02:49:06.828Z,2.23
2023-03-30T02:51:45.555Z,2.20
2023-03-30T02:54:46.937Z,2.00
2023-03-30T02:57:45.030Z,2.60
2023-03-30T03:00:18.719Z,2.20
2023-03-30T03:02:52.594Z,1.77
2023-03-30T03:05:20.181Z,2.53
2023-03-30T03:07:48.065Z,1.80
2023-03-30T03:10:14.919Z,2.30
2023-03-30T03:12:44.368Z,2.00
2023-03-30T03:15:12.384Z,2.23
2023-03-30T03:17:39.078Z,2.23
2023-03-30T03:20:08.172Z,2.80
2023-03-30T03:22:34.545Z,2.70
2023-03-30T03:25:02.391Z,2.13
2023-03-30T03:27:28.832Z,2.23
2023-03-30T03:29:55.159Z,2.50
2023-03-30T03:32:21.739Z,2.20
2023-03-30T03:34:48.378Z,2.50
2023-03-30T03:37:14.815Z,2.63
2023-03-30T03:39:41.698Z,2.20
2023-03-30T03:42:08.169Z,2.40
2023-03-30T03:44:34.590Z,2.33
2023-03-30T03:47:01.147Z,2.30
2023-03-30T03:49:27.717Z,2.47
2023-03-30T03:51:54.155Z,2.97
2023-03-30T03:54:20.653Z,2.47
2023-03-30T03:56:47.202Z,2.90
2023-03-30T03:59:13.623Z,2.53
2023-03-30T04:01:39.969Z,2.90
2023-03-30T04:04:06.856Z,2.80
2023-03-30T04:06:33.233Z,2.77
2023-03-30T04:09:01.097Z,2.73
2023-03-30T04:11:27.670Z,2.60
2023-03-30T04:13:54.090Z,2.90
2023-03-30T04:16:20.442Z,2.60
2023-03-30T04:18:47.025Z,2.47
2023-03-30T04:21:13.515Z,2.60
2023-03-30T04:23:39.988Z,3.00
2023-03-30T04:26:08.020Z,2.83
2023-03-30T04:28:35.533Z,3.00
2023-03-30T04:31:05.300Z,2.53
2023-03-30T04:33:35.028Z,2.53
2023-03-30T04:36:01.799Z,2.60
2023-03-30T04:38:29.955Z,2.90
2023-03-30T04:40:56.868Z,2.80
2023-03-30T04:43:24.014Z,3.00
2023-03-30T04:45:55.442Z,3.33
2023-03-30T04:48:23.706Z,3.17
2023-03-30T04:50:51.636Z,2.80
2023-03-30T04:53:18.932Z,3.03
2023-03-30T04:55:50.679Z,3.10
2023-03-30T04:58:17.588Z,2.93
2023-03-30T05:00:43.981Z,3.30
2023-03-30T05:03:10.867Z,3.53
2023-03-30T05:05:37.544Z,3.07
2023-03-30T05:08:05.061Z,2.93
2023-03-30T05:10:31.545Z,2.67
2023-03-30T05:12:57.854Z,3.30
2023-03-30T05:15:24.247Z,3.63
2023-03-30T05:17:50.971Z,2.77
2023-03-30T05:20:18.223Z,2.80
2023-03-30T05:22:46.817Z,3.10
2023-03-30T05:25:13.325Z,3.07
2023-03-30T05:27:39.821Z,3.50
2023-03-30T05:30:08.190Z,3.30
2023-03-30T05:32:34.844Z,2.80
2023-03-30T05:35:01.321Z,3.97
2023-03-30T05:37:27.850Z,3.50
2023-03-30T05:39:54.193Z,3.47
2023-03-30T05:42:21.596Z,3.30
2023-03-30T05:44:47.994Z,3.83
2023-03-30T05:47:14.563Z,3.90
2023-03-30T05:49:41.009Z,3.63
2023-03-30T05:52:07.336Z,3.20
2023-03-30T05:54:33.869Z,3.57
2023-03-30T05:57:00.914Z,3.30
2023-03-30T05:59:27.294Z,3.33
2023-03-30T06:01:54.143Z,3.00
2023-03-30T06:04:20.733Z,3.00
2023-03-30T06:06:47.197Z,3.97
2023-03-30T06:09:13.602Z,3.47
2023-03-30T06:11:40.088Z,3.50
2023-03-30T06:14:06.396Z,3.47
2023-03-30T06:16:32.858Z,3.03
2023-03-30T06:18:59.212Z,3.43
2023-03-30T06:21:25.698Z,3.27
2023-03-30T06:23:52.416Z,3.60
2023-03-30T06:26:18.892Z,3.53
2023-03-30T06:28:45.244Z,3.70
2023-03-30T06:31:12.324Z,3.70
2023-03-30T06:33:41.569Z,3.23
2023-03-30T06:36:13.897Z,3.67
2023-03-30T06:38:41.093Z,3.60
2023-03-30T06:41:10.008Z,3.53
2023-03-30T06:43:36.871Z,3.60
2023-03-30T06:46:04.263Z,3.63
2023-03-30T06:48:30.714Z,3.70
2023-03-30T06:50:57.865Z,3.60
2023-03-30T06:53:24.280Z,3.40
2023-03-30T06:55:56.880Z,3.10
2023-03-30T06:58:24.902Z,3.10
2023-03-30T07:00:51.608Z,3.30
2023-03-30T07:03:21.321Z,2.97
2023-03-30T07:05:48.881Z,3.30
2023-03-30T07:08:15.627Z,3.37
2023-03-30T07:10:42.973Z,2.73
2023-03-30T07:13:09.990Z,2.93
2023-03-30T07:15:36.759Z,3.00
2023-03-30T07:18:03.899Z,3.40
2023-03-30T07:20:30.386Z,3.57
2023-03-30T07:22:56.686Z,3.40
2023-03-30T07:25:23.283Z,3.47
2023-03-30T07:27:49.691Z,3.07
2023-03-30T07:30:21.794Z,2.73
2023-03-30T07:32:50.825Z,2.90
2023-03-30T07:35:17.788Z,3.23
2023-03-30T07:37:44.241Z,3.30
2023-03-30T07:40:11.932Z,3.10
2023-03-30T07:42:38.532Z,2.40
2023-03-30T07:45:05.340Z,3.20
2023-03-30T07:47:31.754Z,3.30
2023-03-30T07:49:58.274Z,3.40
2023-03-30T07:52:25.852Z,2.80
2023-03-30T07:54:52.648Z,3.10
2023-03-30T07:57:19.110Z,2.70
2023-03-30T07:59:45.886Z,2.77
2023-03-30T08:02:14.271Z,2.23
2023-03-30T08:04:44.429Z,2.37
2023-03-30T08:07:11.646Z,1.83
2023-03-30T08:09:38.057Z,2.57
2023-03-30T08:12:04.481Z,1.90
2023-03-30T08:14:31.020Z,1.97
2023-03-30T08:16:57.387Z,1.80
2023-03-30T08:19:25.059Z,2.23
2023-03-30T08:21:51.437Z,2.23
2023-03-30T08:24:17.774Z,1.77
2023-03-30T08:26:44.155Z,1.67
2023-03-30T08:29:11.204Z,1.73
2023-03-30T08:31:38.495Z,1.80
2023-03-30T08:34:06.394Z,1.73
2023-03-30T08:36:32.959Z,1.80
2023-03-30T08:39:00.203Z,1.43
2023-03-30T08:41:29.551Z,2.20
2023-03-30T08:44:01.035Z,2.33
2023-03-30T08:46:30.422Z,1.70
2023-03-30T08:49:01.103Z,1.97
2023-03-30T08:51:29.233Z,2.27
2023-03-30T08:53:58.240Z,1.63
2023-03-30T08:56:30.653Z,1.73
2023-03-30T08:59:26.481Z,2.40
2023-03-30T09:02:08.493Z,1.77
2023-03-30T09:05:13.539Z,1.80
2023-03-30T09:07:48.923Z,1.93
2023-03-30T09:10:16.321Z,1.87
2023-03-30T09:12:47.653Z,2.00
2023-03-30T09:16:02.352Z,1.70
2023-03-30T09:18:32.206Z,2.40
2023-03-30T09:21:01.411Z,2.10
2023-03-30T09:23:30.984Z,2.07
2023-03-30T09:26:19.065Z,2.00
2023-03-30T09:29:03.757Z,2.13
2023-03-30T09:31:41.147Z,2.17
2023-03-30T09:34:37.991Z,2.20
2023-03-30T09:37:12.497Z,2.40
2023-03-30T09:39:41.048Z,2.07
2023-03-30T09:42:27.963Z,2.37
2023-03-30T09:45:19.529Z,1.83
2023-03-30T09:47:46.562Z,1.73
2023-03-30T09:50:24.323Z,1.80
2023-03-30T09:53:03.351Z,1.70
2023-03-30T09:55:35.362Z,1.77
2023-03-30T09:58:10.920Z,1.83
2023-03-30T10:00:37.823Z,2.00
2023-03-30T10:03:07.323Z,1.60
2023-03-30T10:05:36.416Z,1.47
2023-03-30T10:08:19.495Z,1.40
2023-03-30T10:10:45.987Z,1.77
2023-03-30T10:13:16.846Z,1.77
2023-03-30T10:15:47.000Z,1.57
2023-03-30T10:18:27.598Z,2.23
2023-03-30T10:21:14.955Z,1.70
2023-03-30T10:23:44.708Z,1.43
2023-03-30T10:26:19.513Z,1.30
2023-03-30T10:29:18.182Z,1.53
2023-03-30T10:31:47.343Z,1.20
2023-03-30T10:34:44.619Z,1.40
2023-03-30T10:37:26.559Z,1.20
2023-03-30T10:39:54.736Z,1.40
2023-03-30T10:42:25.178Z,1.40
2023-03-30T10:44:59.517Z,1.17
2023-03-30T10:47:34.935Z,1.10
2023-03-30T10:50:22.577Z,1.33
2023-03-30T10:53:14.005Z,1.43
2023-03-30T10:55:49.921Z,1.30
2023-03-30T10:58:37.643Z,1.37
2023-03-30T11:01:29.412Z,1.37
2023-03-30T11:04:16.242Z,1.13
2023-03-30T11:06:53.052Z,1.27
2023-03-30T11:09:24.409Z,1.60
2023-03-30T11:12:16.566Z,1.33
2023-03-30T11:14:51.665Z,1.20
2023-03-30T11:17:33.971Z,1.20
2023-03-30T11:20:23.696Z,1.37
2023-03-30T11:23:11.865Z,1.47
2023-03-30T11:25:53.264Z,1.43
2023-03-30T11:28:31.613Z,1.20
2023-03-30T11:31:03.113Z,1.60
2023-03-30T11:33:38.823Z,1.70
2023-03-30T11:36:18.696Z,1.53
2023-03-30T11:38:54.295Z,1.70
2023-03-30T11:41:28.736Z,1.40
2023-03-30T11:43:56.150Z,1.93
2023-03-30T11:46:27.913Z,2.03
2023-03-30T11:49:13.479Z,2.20
2023-03-30T11:51:45.988Z,1.90
2023-03-30T11:54:30.714Z,2.10
2023-03-30T11:57:40.192Z,2.10
2023-03-30T12:00:32.459Z,2.03
2023-03-30T12:03:16.879Z,2.30
2023-03-30T12:05:53.175Z,2.20
2023-03-30T12:08:35.798Z,2.30
2023-03-30T12:11:11.626Z,1.70
2023-03-30T12:13:50.290Z,1.70
2023-03-30T12:16:23.231Z,1.30
2023-03-30T12:19:15.427Z,1.27
2023-03-30T12:22:01.187Z,0.83
2023-03-30T12:24:41.907Z,1.03
2023-03-30T12:27:11.801Z,1.20
2023-03-30T12:30:01.765Z,1.20
2023-03-30T12:32:30.462Z,1.43
2023-03-30T12:34:58.039Z,1.00
2023-03-30T12:37:34.554Z,1.30
2023-03-30T12:40:08.662Z,1.20
2023-03-30T12:42:46.139Z,1.50
2023-03-30T12:45:23.577Z,1.50
2023-03-30T12:48:14.271Z,1.50
2023-03-30T12:50:54.331Z,1.57
2023-03-30T12:53:56.094Z,1.77
2023-03-30T12:56:26.143Z,1.70
2023-03-30T12:59:20.862Z,1.83
2023-03-30T13:02:35.512Z,2.37
2023-03-30T13:05:03.036Z,1.83
2023-03-30T13:07:36.311Z,1.87
2023-03-30T13:10:25.271Z,1.93
2023-03-30T13:12:51.764Z,1.67
2023-03-30T13:15:39.089Z,1.67
2023-03-30T13:18:26.360Z,2.33
2023-03-30T13:20:56.064Z,1.97
2023-03-30T13:23:22.482Z,2.13
2023-03-30T13:25:49.667Z,2.10
2023-03-30T13:28:35.022Z,2.13
2023-03-30T13:31:27.364Z,1.70
2023-03-30T13:34:09.921Z,2.03
2023-03-30T13:36:48.349Z,1.83
2023-03-30T13:39:27.588Z,1.70
2023-03-30T13:42:16.268Z,1.60
2023-03-30T13:44:49.304Z,1.83
2023-03-30T13:47:21.821Z,1.40
2023-03-30T13:49:57.242Z,1.60
2023-03-30T13:52:40.986Z,1.70
2023-03-30T13:55:18.937Z,1.50
2023-03-30T13:57:45.394Z,1.33
2023-03-30T14:00:39.672Z,1.80
2023-03-30T14:03:38.368Z,1.50
2023-03-30T14:06:07.708Z,1.70
2023-03-30T14:08:37.776Z,1.50
2023-03-30T14:11:11.124Z,1.17
2023-03-30T14:13:38.103Z,1.60
2023-03-30T14:16:06.715Z,1.10
2023-03-30T14:18:33.829Z,1.60
2023-03-30T14:21:03.936Z,1.80
2023-03-30T14:23:36.734Z,1.70
2023-03-30T14:26:11.871Z,1.50
2023-03-30T14:28:38.678Z,1.97
2023-03-30T14:31:21.007Z,1.97
2023-03-30T14:33:47.873Z,1.80
2023-03-30T14:36:16.814Z,1.83
2023-03-30T14:38:49.322Z,1.80
2023-03-30T14:41:24.948Z,2.40
2023-03-30T14:44:04.936Z,2.60
2023-03-30T14:46:46.973Z,2.20
2023-03-30T14:49:23.700Z,1.90
2023-03-30T14:51:52.505Z,2.17
2023-03-30T14:54:22.716Z,3.40
2023-03-30T14:57:04.923Z,2.40
2023-03-30T14:59:36.222Z,2.30
2023-03-30T15:02:04.913Z,2.20
2023-03-30T15:04:38.355Z,2.47
2023-03-30T15:07:05.311Z,2.63
2023-03-30T15:09:38.634Z,2.40
2023-03-30T15:12:05.928Z,2.50
2023-03-30T15:14:39.324Z,2.37
2023-03-30T15:17:20.848Z,1.95
2023-03-30T15:19:49.826Z,2.30
2023-03-30T15:22:44.136Z,2.58
2023-03-30T15:25:17.993Z,2.50
2023-03-30T15:27:51.662Z,2.63
2023-03-30T15:30:30.209Z,2.60
2023-03-30T15:32:57.239Z,2.23
2023-03-30T15:35:28.136Z,2.70
2023-03-30T15:38:13.611Z,2.63
2023-03-30T15:40:45.572Z,2.33
2023-03-30T15:43:18.090Z,2.40
2023-03-30T15:45:48.733Z,2.40
2023-03-30T15:48:18.492Z,2.60
2023-03-30T15:50:49.640Z,2.00
2023-03-30T15:53:27.718Z,2.27
2023-03-30T15:55:54.187Z,2.03
2023-03-30T15:58:26.017Z,2.10
2023-03-30T16:00:53.152Z,2.10
2023-03-30T16:03:33.153Z,2.03
2023-03-30T16:05:59.489Z,1.60
2023-03-30T16:08:26.402Z,1.50
2023-03-30T16:10:53.005Z,1.20
2023-03-30T16:13:19.462Z,1.73
2023-03-30T16:15:46.110Z,1.70
2023-03-30T16:18:12.614Z,1.83
2023-03-30T16:20:39.110Z,1.70
2023-03-30T16:23:05.472Z,1.70
2023-03-30T16:25:44.208Z,1.77
2023-03-30T16:28:17.625Z,1.50
2023-03-30T16:30:46.769Z,1.97
2023-03-30T16:33:13.279Z,1.63
2023-03-30T16:35:41.236Z,1.50
2023-03-30T16:38:09.905Z,2.07
2023-03-30T16:40:42.221Z,1.80
2023-03-30T16:43:09.456Z,1.80
2023-03-30T16:45:36.107Z,1.90
2023-03-30T16:48:02.735Z,1.73
2023-03-30T16:50:40.822Z,1.50
2023-03-30T16:53:08.776Z,2.13
2023-03-30T16:55:36.340Z,2.00
2023-03-30T16:58:03.821Z,1.53
2023-03-30T17:00:35.965Z,1.43
2023-03-30T17:03:02.311Z,1.50
2023-03-30T17:05:29.999Z,1.33
2023-03-30T17:07:56.587Z,1.27
2023-03-30T17:10:29.267Z,1.13
2023-03-30T17:12:56.097Z,1.10
2023-03-30T17:15:24.482Z,1.33
2023-03-30T17:17:52.287Z,1.07
2023-03-30T17:20:23.380Z,0.90
2023-03-30T17:22:50.792Z,1.10
2023-03-30T17:25:20.677Z,1.23
2023-03-30T17:27:48.834Z,1.30
2023-03-30T17:30:25.227Z,1.30
2023-03-30T17:32:52.351Z,1.40
2023-03-30T17:35:18.865Z,1.30
2023-03-30T17:37:45.719Z,1.20
2023-03-30T17:40:21.518Z,1.33
2023-03-30T17:42:48.690Z,1.63
2023-03-30T17:45:18.082Z,1.30
2023-03-30T17:47:45.475Z,1.10
2023-03-30T17:50:28.053Z,1.43
2023-03-30T17:52:55.958Z,1.63
2023-03-30T17:55:25.130Z,1.40
2023-03-30T17:57:52.003Z,1.20
2023-03-30T18:00:21.465Z,1.23
2023-03-30T18:02:48.639Z,1.90
2023-03-30T18:05:15.895Z,1.40
2023-03-30T18:07:42.622Z,1.40
2023-03-30T18:10:15.205Z,1.50
2023-03-30T18:12:41.591Z,1.47
2023-03-30T18:15:08.260Z,1.97
2023-03-30T18:17:34.633Z,1.83
2023-03-30T18:20:01.560Z,1.53
2023-03-30T18:22:27.960Z,1.63
2023-03-30T18:24:54.352Z,1.50
2023-03-30T18:27:20.998Z,2.27
2023-03-30T18:29:47.309Z,1.33
2023-03-30T18:32:13.608Z,1.83
2023-03-30T18:34:39.949Z,1.70
2023-03-30T18:37:06.269Z,1.67
2023-03-30T18:39:32.630Z,1.63
2023-03-30T18:41:59.000Z,1.70
2023-03-30T18:44:25.544Z,1.60
2023-03-30T18:46:52.290Z,1.77
2023-03-30T18:49:21.198Z,1.90
2023-03-30T18:51:47.521Z,1.73
2023-03-30T18:54:13.858Z,1.60
2023-03-30T18:56:40.358Z,1.90
2023-03-30T18:59:09.747Z,1.60
2023-03-30T19:01:38.080Z,2.00
2023-03-30T19:04:04.641Z,1.90
2023-03-30T19:06:31.023Z,2.03
2023-03-30T19:08:57.322Z,1.60
2023-03-30T19:11:25.991Z,1.27
2023-03-30T19:13:52.863Z,2.00
2023-03-30T19:16:20.159Z,1.93
2023-03-30T19:18:46.618Z,1.90
2023-03-30T19:21:17.715Z,2.23
2023-03-30T19:23:44.243Z,1.87
2023-03-30T19:26:11.562Z,2.10
2023-03-30T19:28:38.688Z,1.77
2023-03-30T19:31:13.347Z,2.13
2023-03-30T19:33:40.457Z,1.60
2023-03-30T19:36:07.293Z,1.63
2023-03-30T19:38:33.792Z,1.57
2023-03-30T19:41:01.961Z,1.87
2023-03-30T19:43:28.707Z,1.70
2023-03-30T19:45:55.269Z,2.10
2023-03-30T19:48:21.831Z,1.83
2023-03-30T19:50:49.053Z,1.73
2023-03-30T19:53:15.688Z,1.63
2023-03-30T19:55:46.142Z,1.60
2023-03-30T19:58:13.444Z,1.87
2023-03-30T20:00:43.313Z,1.67
2023-03-30T20:03:12.167Z,1.80
2023-03-30T20:05:38.931Z,2.17
2023-03-30T20:08:17.039Z,2.00
2023-03-30T20:10:49.518Z,1.77
2023-03-30T20:13:16.973Z,1.90
2023-03-30T20:15:45.290Z,1.67
2023-03-30T20:18:11.734Z,6.40
2023-03-30T20:20:38.399Z,3.00
2023-03-30T20:23:04.783Z,5.77
2023-03-30T20:25:31.126Z,2.83
2023-03-30T20:27:57.599Z,1.90
2023-03-30T20:30:23.998Z,1.60
2023-03-30T20:33:04.407Z,2.00
2023-03-30T20:35:36.307Z,1.93
2023-03-30T20:38:04.468Z,1.97
2023-03-30T20:40:31.796Z,1.67
2023-03-30T20:43:03.050Z,2.03
2023-03-30T20:45:30.812Z,1.70
2023-03-30T20:47:57.498Z,1.60
2023-03-30T20:50:23.953Z,1.60
2023-03-30T20:52:52.691Z,1.83
2023-03-30T20:55:19.139Z,1.77
2023-03-30T20:57:45.527Z,2.10
2023-03-30T21:00:12.662Z,1.60
2023-03-30T21:02:39.107Z,1.70
2023-03-30T21:05:06.060Z,1.70
2023-03-30T21:07:33.787Z,1.90
2023-03-30T21:10:00.266Z,1.90
2023-03-30T21:12:27.131Z,1.70
2023-03-30T21:14:53.543Z,1.50
2023-03-30T21:17:19.924Z,1.77
2023-03-30T21:19:46.298Z,1.80
2023-03-30T21:22:12.778Z,1.80
2023-03-30T21:24:39.090Z,2.50
2023-03-30T21:27:05.658Z,1.97
2023-03-30T21:29:32.363Z,2.03
2023-03-30T21:31:58.720Z,1.70
2023-03-30T21:34:25.261Z,1.90
2023-03-30T21:36:52.068Z,2.10
2023-03-30T21:39:19.106Z,2.10
2023-03-30T21:41:45.756Z,1.80
2023-03-30T21:44:12.494Z,1.57
2023-03-30T21:46:38.931Z,1.97
2023-03-30T21:49:05.406Z,2.70
2023-03-30T21:51:31.940Z,1.97
2023-03-30T21:53:58.872Z,1.67
2023-03-30T21:56:28.746Z,3.00
2023-03-30T21:58:55.176Z,1.87
2023-03-30T22:01:24.053Z,1.90
2023-03-30T22:03:51.238Z,1.90
2023-03-30T22:06:18.658Z,1.90
2023-03-30T22:08:45.976Z,1.60
2023-03-30T22:11:15.306Z,1.70
2023-03-30T22:13:42.022Z,1.50
2023-03-30T22:16:13.139Z,1.60
2023-03-30T22:18:40.625Z,1.77
2023-03-30T22:21:09.029Z,2.27
2023-03-30T22:23:35.430Z,1.67
2023-03-30T22:26:02.083Z,1.80
2023-03-30T22:28:28.636Z,1.57
2023-03-30T22:30:55.406Z,1.50
2023-03-30T22:33:21.747Z,1.87
2023-03-30T22:35:49.361Z,1.90
2023-03-30T22:38:16.340Z,1.63
2023-03-30T22:40:42.767Z,1.53
2023-03-30T22:43:10.797Z,1.70
2023-03-30T22:45:37.910Z,1.90
2023-03-30T22:48:04.868Z,1.50
2023-03-30T22:50:31.566Z,2.03
2023-03-30T22:52:57.894Z,1.77
2023-03-30T22:55:25.550Z,1.67
2023-03-30T22:57:53.215Z,1.80
2023-03-30T23:00:20.941Z,1.67
2023-03-30T23:02:49.024Z,1.67
2023-03-30T23:05:16.018Z,1.53
2023-03-30T23:07:44.129Z,1.57
2023-03-30T23:10:15.333Z,1.83
2023-03-30T23:12:42.933Z,1.90
2023-03-30T23:15:10.646Z,1.70
2023-03-30T23:17:37.512Z,1.80
2023-03-30T23:20:05.446Z,2.30
2023-03-30T23:22:31.907Z,1.80
2023-03-30T23:24:58.862Z,1.80
2023-03-30T23:27:25.519Z,1.60
2023-03-30T23:29:52.768Z,1.80
2023-03-30T23:32:19.326Z,1.73
2023-03-30T23:34:46.565Z,1.83
2023-03-30T23:37:13.252Z,1.63
2023-03-30T23:39:40.073Z,2.00
2023-03-30T23:42:06.966Z,1.73
2023-03-30T23:44:33.998Z,1.80
2023-03-30T23:47:00.831Z,1.73
2023-03-30T23:49:27.253Z,1.80
2023-03-30T23:51:53.862Z,1.53
2023-03-30T23:54:21.161Z,1.77
2023-03-30T23:56:48.809Z,1.63
2023-03-30T23:59:15.407Z,1.90
